Hlavní strana
METAR-TAF:

METAR-TAF

Letiště :

Americus, Georgie, Spojené státy americké

zeměpisná šířka: 32-06-39N, zeměpisná délka: 084-11-20W, výška: 144 m

Aktuální stav počasí

Zpráva byla vytvořena před 21 minutami, v 02:50 UTC
Jihojihozápadní vítr 6 kt
Teplota 18°C
Vlhkost vzduchu 83%
Tlak 1022 hPa
Viditelnost: 16.1 km
Polojasno ve výšce 2400 ft
Oblačno až skoro zataženo ve výšce 3400 ft
Oblačno až skoro zataženo ve výšce 4500 ft

METAR: KACJ 190250Z AUTO 20006KT 10SM SCT024 BKN034 BKN045 18/15 A3017 RMK AO2

Čas: 22:11 (03:11 UTC)


TAF: chybějící

Stav a předpovědi počasí z více než 4 000 letišť (zprávy METAR a TAF).

Červené a žluté tečky na mapě představují dostupné meteorologické stanice.

Když kurzor umístíte na tečku, zobrazí se název stanice.

Pak kliknutím zobrazíte stav a předpověď počasí.

Chcete-li změnit mapu, kliknutím na zelené tlačítko se znaménkem +mapu přiblížíte, kliknutím na zelené tlačítko se znaménkem – mapu oddálíte a kliknutím na zelené šipky přejdete na sousední mapy.


METAR-TAF: